Gay Head, Massachusetts
Current Conditions -  °F | °C
As of 1:53 AM on Monday 24 Nov 2014 (Local Time) from KMVY Reporting Station
Scattered Clouds Scattered Clouds  
Wind Chill: 53°   Ceiling: Unl
Heat Index: 53°   Visibility: 10mi
Dew Point: 52°   Wind: 12mph
Humidity: 96%   Direction: 150°SSE
Pressure: 30.07"   Gusts: NA
Location:  41.3536°N, 70.7417°W
Report Text: KMVY 240653Z AUTO 15010KT 10SM SCT039 12/11 A3007 RMK AO2 SLP183 T01170111
Loading
Personal Weather Stations






























Interactive Weather Map New forecast layout! Learn more

10-Day Weather Forecast

Advertisements
Track Severe Weather on mobile